Airport View

Enter AWOS ICAO identifier for current METAR.

ex. KFNL

KSIK 200015Z AUTO 36005KT 10SM BKN005 OVC009 11/11 A3008 RMK AO2 TSNO

20 Oct 2020 00:03

Frequency: 119.175

Phone: 573-471-7371

Other Area AWOS: KCIR - KCGI - KMAW - KPOF

TAF KCGI 192320Z 2000/2024 02005KT P6SM VCSH OVC007 TEMPO 2000/2004 5SM -SHRA OVC010 FM200400 36003KT 5SM -SHRA BR OVC006 FM201300 08003KT 6SM BR VCSH OVC007 FM201800 14003KT P6SM OVC014